Time;durP1;ratioP1;P1;durP2;ratioP2;P2;SDS_P1;SDS_P2;PMS_P1;PMS_P2;Temp;Humidity;BMP_temperature;BMP_pressure;BME280_temperature;BME280_humidity;BME280_pressure;Samples;Min_cycle;Max_cycle;Signal;HPM_P1;HPM_P2
2024/02/12 00:02:18;;;;;;;48.55;22.02;;;7.80;99.90;;;;;;5129823;27;20055;-65
2024/02/12 00:04:51;;;;;;;44.08;20.90;;;7.90;99.90;;;;;;5138156;27;20047;-65
2024/02/12 00:07:17;;;;;;;47.10;21.85;;;7.90;99.90;;;;;;5136892;27;20027;-65
2024/02/12 00:09:44;;;;;;;53.03;23.95;;;7.90;99.90;;;;;;5146534;27;20091;-65
2024/02/12 00:12:11;;;;;;;45.72;22.50;;;7.90;99.90;;;;;;5142333;27;20471;-64
2024/02/12 00:14:38;;;;;;;51.67;23.17;;;7.90;99.90;;;;;;5141650;27;20506;-65
2024/02/12 00:17:05;;;;;;;49.90;23.00;;;8.00;99.90;;;;;;5123124;27;20053;-65
2024/02/12 00:19:37;;;;;;;45.00;21.38;;;7.90;99.90;;;;;;5134519;27;20569;-65
2024/02/12 00:22:04;;;;;;;51.38;23.52;;;8.00;99.90;;;;;;5139558;27;20026;-64
2024/02/12 00:24:30;;;;;;;50.60;22.00;;;8.00;99.90;;;;;;5124613;27;20094;-64
2024/02/12 00:27:03;;;;;;;47.42;23.60;;;8.00;99.90;;;;;;5145347;27;20163;-65
2024/02/12 00:29:30;;;;;;;52.75;21.90;;;8.10;99.90;;;;;;5145501;27;20038;-64
2024/02/12 00:31:58;;;;;;;50.03;22.05;;;8.00;99.90;;;;;;5121105;27;20178;-64
2024/02/12 00:34:28;;;;;;;50.17;22.60;;;8.10;99.90;;;;;;5142782;27;20583;-65
2024/02/12 00:36:54;;;;;;;45.28;20.52;;;8.00;99.90;;;;;;5131517;27;20042;-64
2024/02/12 00:39:20;;;;;;;46.63;20.85;;;8.10;99.90;;;;;;5143743;27;20095;-64
2024/02/12 00:41:53;;;;;;;44.28;19.45;;;8.00;99.90;;;;;;5132077;27;20046;-65
2024/02/12 00:44:20;;;;;;;46.25;19.90;;;8.10;99.90;;;;;;5141909;27;20650;-65
2024/02/12 00:46:52;;;;;;;48.08;22.15;;;8.00;99.90;;;;;;5140875;27;20114;-65
2024/02/12 00:49:18;;;;;;;45.60;20.38;;;8.00;99.90;;;;;;5140217;27;20043;-65
2024/02/12 00:51:44;;;;;;;45.08;20.02;;;8.00;99.90;;;;;;5141516;27;20039;-65
2024/02/12 00:54:17;;;;;;;47.80;21.73;;;8.00;99.90;;;;;;5134622;27;20034;-65
2024/02/12 00:56:44;;;;;;;44.83;19.88;;;8.10;99.90;;;;;;5140304;27;20559;-65
2024/02/12 00:59:11;;;;;;;42.75;21.92;;;8.00;99.90;;;;;;5137860;27;20720;-64
2024/02/12 01:01:38;;;;;;;43.78;20.60;;;8.10;99.90;;;;;;5135629;27;20093;-64
2024/02/12 01:04:07;;;;;;;44.10;21.02;;;8.10;99.90;;;;;;5136614;27;20039;-64
2024/02/12 01:06:33;;;;;;;42.22;21.83;;;8.00;99.90;;;;;;5132750;27;20046;-64
2024/02/12 01:09:00;;;;;;;45.58;20.95;;;8.00;99.90;;;;;;5143509;27;20037;-64
2024/02/12 01:11:28;;;;;;;43.03;21.27;;;8.10;99.90;;;;;;5144980;27;20055;-63
2024/02/12 01:13:55;;;;;;;50.17;22.30;;;8.00;99.90;;;;;;5134369;27;20049;-64
2024/02/12 01:16:21;;;;;;;49.65;23.08;;;8.10;99.90;;;;;;5140149;27;20043;-64
2024/02/12 01:18:50;;;;;;;45.75;20.75;;;8.10;99.90;;;;;;5125577;27;20751;-64
2024/02/12 01:21:17;;;;;;;43.25;21.60;;;8.10;99.90;;;;;;5144553;27;20179;-65
2024/02/12 01:23:44;;;;;;;40.72;21.10;;;8.10;99.90;;;;;;5120052;27;20148;-66
2024/02/12 01:26:16;;;;;;;42.03;21.45;;;8.10;99.90;;;;;;5139750;27;20506;-65
2024/02/12 01:28:42;;;;;;;55.70;21.23;;;8.00;99.90;;;;;;5139873;27;20502;-65
2024/02/12 01:31:10;;;;;;;41.20;19.92;;;8.10;99.90;;;;;;5141188;27;20038;-66
2024/02/12 01:33:39;;;;;;;42.25;19.98;;;8.10;99.90;;;;;;5144037;27;20042;-66
2024/02/12 01:36:07;;;;;;;49.10;20.13;;;8.10;99.90;;;;;;5140398;27;20427;-66
2024/02/12 01:38:33;;;;;;;35.63;19.27;;;8.00;99.90;;;;;;5139790;27;20577;-66
2024/02/12 01:41:02;;;;;;;40.70;19.65;;;8.10;99.90;;;;;;5136939;27;20121;-66
2024/02/12 01:43:32;;;;;;;37.85;19.05;;;8.00;99.90;;;;;;5137255;27;20542;-66
2024/02/12 01:45:59;;;;;;;40.72;18.95;;;7.90;99.90;;;;;;5136202;27;20035;-66
2024/02/12 01:48:26;;;;;;;35.03;18.55;;;7.90;99.90;;;;;;5143898;27;20517;-66
2024/02/12 01:50:52;;;;;;;32.00;17.10;;;7.90;99.90;;;;;;5139053;27;20042;-66
2024/02/12 01:53:19;;;;;;;34.10;17.00;;;7.90;99.90;;;;;;5140778;27;20514;-66
2024/02/12 01:55:46;;;;;;;35.47;17.45;;;7.90;99.90;;;;;;5141580;27;20031;-66
2024/02/12 01:58:16;;;;;;;30.25;16.50;;;8.00;99.90;;;;;;5139519;27;20038;-65
2024/02/12 02:00:44;;;;;;;37.75;18.20;;;7.80;99.90;;;;;;5139866;27;20314;-65
2024/02/12 02:03:11;;;;;;;33.45;17.10;;;7.90;99.90;;;;;;5142214;27;20112;-66
2024/02/12 02:05:37;;;;;;;38.28;17.85;;;7.90;99.90;;;;;;5135442;27;20043;-66
2024/02/12 02:08:03;;;;;;;30.85;17.13;;;7.90;99.90;;;;;;5139307;27;20067;-66
2024/02/12 02:10:30;;;;;;;40.17;19.15;;;7.90;99.90;;;;;;5136204;27;20046;-65
2024/02/12 02:13:00;;;;;;;41.72;19.38;;;7.90;99.90;;;;;;5143805;27;20070;-64
2024/02/12 02:15:26;;;;;;;35.42;17.83;;;7.80;99.90;;;;;;5143306;27;20642;-64
2024/02/12 02:17:52;;;;;;;36.33;18.10;;;7.80;99.90;;;;;;5134776;27;20095;-64
2024/02/12 02:20:23;;;;;;;40.40;17.85;;;7.90;99.90;;;;;;5116970;28;20031;-64
2024/02/12 02:22:51;;;;;;;30.52;17.45;;;7.90;99.90;;;;;;5133543;27;20039;-65
2024/02/12 02:25:20;;;;;;;33.00;18.08;;;7.90;99.90;;;;;;5139641;27;20049;-65
2024/02/12 02:27:46;;;;;;;33.43;17.87;;;7.90;99.90;;;;;;5142560;27;20066;-64
2024/02/12 02:30:12;;;;;;;38.75;18.10;;;7.80;99.90;;;;;;5136067;27;20795;-65
2024/02/12 02:32:40;;;;;;;37.08;18.55;;;7.80;99.90;;;;;;5142976;27;20581;-65
2024/02/12 02:35:06;;;;;;;39.10;18.58;;;7.90;99.90;;;;;;5143820;27;20120;-65
2024/02/12 02:37:33;;;;;;;39.45;18.85;;;7.90;99.90;;;;;;5121625;27;20121;-65
2024/02/12 02:39:59;;;;;;;38.92;19.23;;;7.90;99.90;;;;;;5135055;27;20051;-65
2024/02/12 02:42:25;;;;;;;35.88;19.45;;;7.80;99.90;;;;;;5142273;27;20047;-65
2024/02/12 02:44:53;;;;;;;40.72;21.08;;;7.90;99.90;;;;;;5134966;27;20060;-65
2024/02/12 02:47:19;;;;;;;38.78;18.40;;;7.80;99.90;;;;;;5139680;27;20047;-64
2024/02/12 02:49:46;;;;;;;34.83;18.88;;;7.80;99.90;;;;;;5139371;27;20043;-64
2024/02/12 02:52:12;;;;;;;41.60;18.85;;;7.80;99.90;;;;;;5140934;27;20045;-64
2024/02/12 02:54:38;;;;;;;40.65;19.27;;;7.80;99.90;;;;;;5143186;27;20066;-65
2024/02/12 02:57:05;;;;;;;39.83;20.05;;;7.90;99.90;;;;;;5143579;27;20502;-65
2024/02/12 02:59:31;;;;;;;38.40;19.08;;;7.90;99.90;;;;;;5134054;27;20043;-65
2024/02/12 03:01:57;;;;;;;39.05;19.60;;;7.80;99.90;;;;;;5141102;27;20049;-64
2024/02/12 03:04:22;;;;;;;44.05;20.20;;;7.80;99.90;;;;;;5140969;27;20038;-65
2024/02/12 03:06:48;;;;;;;36.72;19.75;;;7.90;99.90;;;;;;5138646;27;20533;-65
2024/02/12 03:09:15;;;;;;;38.03;19.88;;;7.80;99.90;;;;;;5094999;27;20043;-65
2024/02/12 03:11:40;;;;;;;37.53;19.45;;;7.80;99.90;;;;;;5147262;27;20391;-64
2024/02/12 03:14:09;;;;;;;33.25;18.15;;;7.80;99.90;;;;;;5143958;27;20043;-65
2024/02/12 03:16:36;;;;;;;37.53;19.17;;;7.90;99.90;;;;;;5140088;27;20507;-65
2024/02/12 03:19:02;;;;;;;45.92;20.45;;;7.80;99.90;;;;;;5127456;27;20103;-65
2024/02/12 03:21:27;;;;;;;40.85;19.90;;;7.80;99.90;;;;;;5133628;27;20494;-65
2024/02/12 03:23:53;;;;;;;39.60;19.33;;;7.70;99.90;;;;;;5145244;27;20035;-66
2024/02/12 03:26:19;;;;;;;43.63;19.73;;;7.70;99.90;;;;;;5123627;27;20073;-65
2024/02/12 03:28:49;;;;;;;45.53;19.42;;;7.70;99.90;;;;;;5143997;27;20038;-65
2024/02/12 03:31:15;;;;;;;41.15;19.58;;;7.60;99.90;;;;;;5120349;27;20080;-65
2024/02/12 03:33:42;;;;;;;37.53;19.02;;;7.70;99.90;;;;;;5146898;27;20086;-65
2024/02/12 03:36:08;;;;;;;38.22;20.42;;;7.70;99.90;;;;;;5145987;27;20046;-65
2024/02/12 03:38:34;;;;;;;35.72;18.10;;;7.60;99.90;;;;;;5145376;27;20053;-65
2024/02/12 03:41:00;;;;;;;37.17;19.23;;;7.60;99.90;;;;;;5144593;27;20043;-65
2024/02/12 03:43:27;;;;;;;38.90;19.92;;;7.70;99.90;;;;;;5140969;27;20039;-65
2024/02/12 03:45:57;;;;;;;38.22;18.92;;;7.70;99.90;;;;;;5145921;27;20579;-65
2024/02/12 04:02:10;;;;;;;38.88;18.67;;;7.70;99.90;;;;;;5146596;27;20061;-65
2024/02/12 04:04:38;;;;;;;;;;;7.80;99.90;;;;;;5144814;27;20042;-64
2024/02/12 04:07:04;;;;;;;36.67;20.05;;;7.70;99.90;;;;;;5139980;27;19919;-64
2024/02/12 04:09:31;;;;;;;35.75;18.45;;;7.70;99.90;;;;;;5146509;27;20051;-65
2024/02/12 04:11:56;;;;;;;37.95;19.20;;;7.80;99.90;;;;;;5124278;27;20047;-64
2024/02/12 04:14:22;;;;;;;26.95;17.75;;;7.70;99.90;;;;;;5136120;27;20039;-64
2024/02/12 04:16:52;;;;;;;39.60;19.73;;;7.70;99.90;;;;;;5125604;27;20398;-65
2024/02/12 04:19:19;;;;;;;35.72;19.23;;;7.80;99.90;;;;;;5117177;27;20047;-65
2024/02/12 04:21:44;;;;;;;33.97;18.10;;;7.70;99.90;;;;;;5141005;27;20114;-65
2024/02/12 04:24:10;;;;;;;35.55;17.67;;;7.80;99.90;;;;;;5143769;27;20037;-65
2024/02/12 04:26:39;;;;;;;33.22;18.80;;;7.80;99.90;;;;;;5143411;27;20047;-64
2024/02/12 04:29:05;;;;;;;33.70;17.67;;;7.80;99.90;;;;;;5137498;27;20039;-64
2024/02/12 04:31:37;;;;;;;33.85;19.13;;;7.80;99.90;;;;;;5145372;27;20698;-65
2024/02/12 04:34:07;;;;;;;34.97;17.42;;;7.80;99.90;;;;;;5127145;27;20047;-65
2024/02/12 04:36:41;;;;;;;37.53;19.42;;;7.70;99.90;;;;;;5115763;27;20577;-65
2024/02/12 04:39:08;;;;;;;37.65;19.15;;;7.80;99.90;;;;;;5144918;27;20050;-64
2024/02/12 04:41:42;;;;;;;36.78;18.90;;;7.70;99.90;;;;;;5136629;27;20045;-65
2024/02/12 04:44:08;;;;;;;38.03;18.23;;;7.90;99.90;;;;;;5129277;27;20073;-65
2024/02/12 04:46:37;;;;;;;33.83;18.60;;;7.80;99.90;;;;;;5131627;27;20039;-65
2024/02/12 04:49:04;;;;;;;35.10;18.25;;;7.80;99.90;;;;;;5141119;27;20119;-65
2024/02/12 04:51:31;;;;;;;33.53;18.60;;;7.70;99.90;;;;;;5135360;27;20035;-65
2024/02/12 04:54:01;;;;;;;38.55;19.90;;;7.80;99.90;;;;;;5130246;27;20043;-65
2024/02/12 04:56:26;;;;;;;40.28;19.50;;;7.80;99.90;;;;;;5136328;27;20722;-65
2024/02/12 04:58:53;;;;;;;44.40;19.88;;;7.80;99.90;;;;;;5120589;27;20072;-65
2024/02/12 05:01:19;;;;;;;33.97;18.77;;;7.90;99.90;;;;;;5123624;27;20047;-65
2024/02/12 05:03:50;;;;;;;36.40;18.55;;;7.80;99.90;;;;;;5144737;27;20538;-65
2024/02/12 05:06:16;;;;;;;38.45;19.58;;;7.80;99.90;;;;;;5141738;27;20039;-65
2024/02/12 05:08:44;;;;;;;43.08;20.15;;;7.80;99.90;;;;;;5136888;27;20031;-65
2024/02/12 05:11:09;;;;;;;39.60;18.67;;;7.80;99.90;;;;;;5138799;27;20048;-65
2024/02/12 05:13:37;;;;;;;36.25;18.90;;;7.70;99.90;;;;;;5133725;27;20489;-64
2024/02/12 05:16:08;;;;;;;36.28;18.70;;;7.70;99.90;;;;;;5135199;27;20114;-65
2024/02/12 05:24:06;;;;;;;34.70;19.25;;;7.80;99.90;;;;;;5143527;27;20074;-65
2024/02/12 05:26:31;;;;;;;37.53;19.25;;;7.80;99.90;;;;;;5143788;27;20281;-64
2024/02/12 05:28:58;;;;;;;37.75;19.27;;;7.70;99.90;;;;;;5144918;27;20035;-65
2024/02/12 05:31:23;;;;;;;36.35;19.13;;;7.70;99.90;;;;;;5139923;27;20057;-64
2024/02/12 05:33:50;;;;;;;34.83;18.60;;;7.70;99.90;;;;;;5139687;27;20394;-65
2024/02/12 05:36:17;;;;;;;36.65;18.55;;;7.70;99.90;;;;;;5125282;27;20703;-65
2024/02/12 05:38:46;;;;;;;39.67;19.38;;;7.70;99.90;;;;;;5133659;27;20123;-65
2024/02/12 05:41:13;;;;;;;38.67;19.63;;;7.50;99.90;;;;;;5135215;27;20043;-65
2024/02/12 05:43:42;;;;;;;36.78;18.83;;;7.60;99.90;;;;;;5133844;27;20456;-64
2024/02/12 05:46:08;;;;;;;;;;;7.50;99.90;;;;;;5141123;27;20487;-64
2024/02/12 05:48:37;;;;;;;31.85;19.35;;;7.50;99.90;;;;;;5143814;27;20461;-65
2024/02/12 05:51:03;;;;;;;41.85;19.05;;;7.50;99.90;;;;;;5142837;27;20111;-64
2024/02/12 05:53:29;;;;;;;38.05;18.30;;;7.40;99.90;;;;;;5119864;27;20039;-65
2024/02/12 05:55:58;;;;;;;35.97;17.58;;;7.40;99.90;;;;;;5142820;27;20477;-65
2024/02/12 05:58:26;;;;;;;40.90;18.38;;;7.30;99.90;;;;;;5131427;27;20047;-65
2024/02/12 06:00:54;;;;;;;41.47;19.33;;;7.20;99.90;;;;;;5141259;27;20145;-65
2024/02/12 06:03:19;;;;;;;39.90;19.25;;;7.20;99.90;;;;;;5134357;27;20054;-65
2024/02/12 06:05:45;;;;;;;45.03;19.55;;;7.10;99.90;;;;;;5137698;27;20385;-65
2024/02/12 06:08:12;;;;;;;33.90;18.23;;;7.00;99.90;;;;;;5135497;27;20083;-64
2024/02/12 06:10:38;;;;;;;41.55;19.27;;;7.00;99.90;;;;;;5141897;27;20038;-65
2024/02/12 06:13:03;;;;;;;40.05;19.05;;;7.10;99.90;;;;;;5128004;27;20539;-65
2024/02/12 06:15:31;;;;;;;40.83;19.23;;;7.00;99.90;;;;;;5137266;27;20042;-65
2024/02/12 06:17:58;;;;;;;34.70;19.10;;;7.10;99.90;;;;;;5130682;27;20058;-65
2024/02/12 06:20:23;;;;;;;39.88;18.75;;;7.00;99.90;;;;;;5143393;27;20038;-65
2024/02/12 06:22:49;;;;;;;34.80;19.20;;;7.20;99.90;;;;;;5139618;27;20414;-64
2024/02/12 06:25:18;;;;;;;35.97;19.17;;;7.20;99.90;;;;;;5138436;27;20031;-65
2024/02/12 06:27:45;;;;;;;41.35;19.45;;;7.10;99.90;;;;;;5141078;27;20080;-65
2024/02/12 06:30:12;;;;;;;39.03;19.30;;;7.20;99.90;;;;;;5136350;27;20505;-65
2024/02/12 06:32:38;;;;;;;38.60;18.52;;;7.30;99.90;;;;;;5140311;27;20126;-65
2024/02/12 06:35:05;;;;;;;38.08;19.85;;;7.40;99.90;;;;;;5138695;27;20042;-65
2024/02/12 06:37:31;;;;;;;45.28;20.50;;;7.40;99.90;;;;;;5138952;27;20494;-64
2024/02/12 06:39:57;;;;;;;42.08;20.17;;;7.40;99.90;;;;;;5141616;27;20099;-64
2024/02/12 06:42:23;;;;;;;33.55;17.88;;;7.50;99.90;;;;;;5141019;27;20069;-64
2024/02/12 06:44:48;;;;;;;39.85;19.42;;;7.50;99.90;;;;;;5139507;27;20034;-64
2024/02/12 06:47:14;;;;;;;38.78;20.67;;;7.40;99.90;;;;;;5143730;27;20031;-64
2024/02/12 06:49:40;;;;;;;41.22;19.58;;;7.50;99.90;;;;;;5144478;27;20034;-65
2024/02/12 06:52:06;;;;;;;37.63;19.20;;;7.50;99.90;;;;;;5124364;27;20399;-65
2024/02/12 06:54:33;;;;;;;43.80;19.25;;;7.50;99.90;;;;;;5144121;27;20105;-65
2024/02/12 06:56:59;;;;;;;41.65;21.50;;;7.40;99.90;;;;;;5144777;27;20229;-65
2024/02/12 06:59:25;;;;;;;41.58;20.17;;;7.40;99.90;;;;;;5143767;27;20046;-64
2024/02/12 07:01:51;;;;;;;39.97;20.00;;;7.40;99.90;;;;;;5143085;27;20074;-64
2024/02/12 07:04:16;;;;;;;37.85;20.73;;;7.50;99.90;;;;;;5123838;27;20138;-64
2024/02/12 07:06:43;;;;;;;46.47;21.45;;;7.40;99.90;;;;;;5142704;27;20042;-64
2024/02/12 07:09:08;;;;;;;38.70;20.77;;;7.50;99.90;;;;;;5143972;27;20027;-65
2024/02/12 07:11:34;;;;;;;41.10;21.75;;;7.40;99.90;;;;;;5125848;27;20039;-64
2024/02/12 07:14:00;;;;;;;46.60;21.88;;;7.50;99.90;;;;;;5143657;27;20035;-65
2024/02/12 07:16:30;;;;;;;44.58;21.30;;;7.30;99.90;;;;;;5143567;27;20030;-65
2024/02/12 07:18:59;;;;;;;40.55;21.13;;;7.30;99.90;;;;;;5124104;27;20811;-65
2024/02/12 07:21:26;;;;;;;44.10;20.98;;;7.40;99.90;;;;;;5143423;27;20069;-65
2024/02/12 07:23:52;;;;;;;43.60;21.17;;;7.40;99.90;;;;;;5145238;27;20035;-65
2024/02/12 07:26:19;;;;;;;46.25;23.52;;;7.30;99.90;;;;;;5144136;27;20058;-65
2024/02/12 07:28:47;;;;;;;48.78;20.67;;;7.40;99.90;;;;;;5143367;27;20431;-64
2024/02/12 07:31:13;;;;;;;49.63;21.90;;;7.40;99.90;;;;;;5143363;27;20042;-66
2024/02/12 07:33:39;;;;;;;43.55;21.48;;;7.40;99.90;;;;;;5143939;27;20061;-65
2024/02/12 07:36:06;;;;;;;47.95;21.30;;;7.50;99.90;;;;;;5142655;27;20050;-65
2024/02/12 07:38:32;;;;;;;52.03;21.88;;;7.40;99.90;;;;;;5107205;27;20049;-65
2024/02/12 07:40:59;;;;;;;45.92;22.23;;;7.50;99.90;;;;;;5142745;27;21328;-65
2024/02/12 07:43:28;;;;;;;44.55;21.63;;;7.50;99.90;;;;;;5142412;27;20072;-65
2024/02/12 07:45:54;;;;;;;46.40;20.67;;;7.50;99.90;;;;;;5123023;27;20046;-65
2024/02/12 07:48:20;;;;;;;42.88;20.73;;;7.40;99.90;;;;;;5142353;27;20111;-65
2024/02/12 07:50:46;;;;;;;46.95;21.35;;;7.50;99.90;;;;;;5140611;27;20131;-65
2024/02/12 07:53:13;;;;;;;43.55;21.90;;;7.60;99.90;;;;;;5130175;27;20038;-65
2024/02/12 07:55:38;;;;;;;38.42;20.83;;;7.50;99.90;;;;;;5141454;27;20470;-65
2024/02/12 07:58:04;;;;;;;50.15;22.92;;;7.50;99.90;;;;;;5123957;27;20150;-65
2024/02/12 08:00:30;;;;;;;39.50;20.90;;;7.60;99.90;;;;;;5141146;27;20047;-65
2024/02/12 08:02:56;;;;;;;41.55;20.50;;;7.50;99.90;;;;;;5143481;27;20061;-65
2024/02/12 08:05:21;;;;;;;42.38;20.48;;;7.60;99.90;;;;;;5141609;27;20813;-65
2024/02/12 08:07:47;;;;;;;46.92;22.52;;;7.50;99.90;;;;;;5121870;27;20034;-65
2024/02/12 08:10:16;;;;;;;48.00;22.33;;;7.60;99.90;;;;;;5140615;27;20050;-65
2024/02/12 08:12:42;;;;;;;48.53;21.85;;;7.70;99.90;;;;;;5122728;27;20098;-65
2024/02/12 08:15:09;;;;;;;43.55;21.08;;;7.50;99.90;;;;;;5142459;27;20076;-64
2024/02/12 08:17:35;;;;;;;45.83;21.92;;;7.60;99.90;;;;;;5142879;27;20165;-65
2024/02/12 08:20:04;;;;;;;42.28;19.98;;;7.80;99.90;;;;;;5141215;27;20499;-65
2024/02/12 08:22:33;;;;;;;52.63;23.13;;;7.80;99.90;;;;;;5143169;27;20457;-64
2024/02/12 08:24:59;;;;;;;40.00;21.25;;;7.80;99.90;;;;;;5142536;27;20034;-65
2024/02/12 08:27:26;;;;;;;44.45;21.05;;;7.80;99.90;;;;;;5143329;27;20546;-65
2024/02/12 08:29:52;;;;;;;44.03;20.83;;;8.00;99.90;;;;;;5141029;27;20635;-65
2024/02/12 08:32:18;;;;;;;37.28;19.92;;;8.20;99.90;;;;;;5140475;27;20125;-65
2024/02/12 08:34:44;;;;;;;37.80;19.83;;;8.40;99.90;;;;;;5113454;27;20280;-65
2024/02/12 08:37:10;;;;;;;43.35;20.23;;;8.50;99.90;;;;;;5139652;27;20573;-64
2024/02/12 08:39:41;;;;;;;38.65;19.58;;;8.40;99.90;;;;;;5142074;27;20756;-64
2024/02/12 08:42:07;;;;;;;31.13;19.25;;;8.60;99.90;;;;;;5141058;27;20049;-64
2024/02/12 08:44:32;;;;;;;33.17;18.60;;;8.90;99.90;;;;;;5140704;27;20035;-65
2024/02/12 08:47:01;;;;;;;38.00;18.15;;;9.00;99.90;;;;;;5138817;27;20141;-65
2024/02/12 08:49:27;;;;;;;33.38;18.85;;;9.20;99.90;;;;;;5140927;27;20413;-64
2024/02/12 08:51:53;;;;;;;34.22;19.33;;;9.50;99.90;;;;;;5140190;27;20128;-65
2024/02/12 08:54:22;;;;;;;31.92;18.98;;;9.50;99.90;;;;;;5136895;27;20046;-65
2024/02/12 08:56:49;;;;;;;29.70;18.15;;;9.40;99.90;;;;;;5139314;27;20042;-65
2024/02/12 08:59:15;;;;;;;37.55;18.70;;;9.70;99.90;;;;;;5138869;27;20042;-64
2024/02/12 09:01:42;;;;;;;29.67;16.65;;;9.80;99.90;;;;;;5142354;27;20054;-64
2024/02/12 09:04:08;;;;;;;28.40;16.60;;;9.90;99.90;;;;;;5139282;27;20665;-64
2024/02/12 09:06:34;;;;;;;32.15;16.27;;;10.20;99.90;;;;;;5141176;27;20034;-64
2024/02/12 09:09:00;;;;;;;30.48;16.35;;;10.20;99.90;;;;;;5138971;27;20317;-64
2024/02/12 09:11:26;;;;;;;24.35;15.70;;;10.40;99.90;;;;;;5139994;27;20626;-63
2024/02/12 09:13:53;;;;;;;32.00;15.60;;;10.50;99.90;;;;;;5134730;27;20038;-63
2024/02/12 09:16:21;;;;;;;24.65;14.00;;;10.20;99.90;;;;;;5136027;27;20034;-64
2024/02/12 09:18:46;;;;;;;28.65;14.40;;;10.20;99.90;;;;;;5138828;27;20046;-64
2024/02/12 09:21:13;;;;;;;25.08;13.30;;;10.20;99.90;;;;;;5141271;27;20061;-63
2024/02/12 09:23:38;;;;;;;24.38;12.50;;;10.10;99.90;;;;;;5141006;27;20038;-64
2024/02/12 09:26:05;;;;;;;29.75;13.75;;;10.00;99.90;;;;;;5141938;27;20570;-64
2024/02/12 09:28:35;;;;;;;24.52;11.95;;;10.00;99.90;;;;;;5138999;27;20031;-63
2024/02/12 09:31:01;;;;;;;19.27;12.05;;;9.90;99.90;;;;;;5141265;27;20095;-63
2024/02/12 09:33:29;;;;;;;23.60;11.68;;;9.80;99.90;;;;;;5121275;27;20635;-63
2024/02/12 09:35:55;;;;;;;19.30;11.07;;;9.80;99.90;;;;;;5138201;27;20038;-64
2024/02/12 09:38:21;;;;;;;25.27;11.77;;;9.70;99.90;;;;;;5140128;27;20074;-64
2024/02/12 09:40:51;;;;;;;29.40;13.20;;;9.70;99.90;;;;;;5141353;27;20066;-64
2024/02/12 09:43:21;;;;;;;21.95;9.35;;;9.60;99.90;;;;;;5140684;27;20203;-64
2024/02/12 09:45:48;;;;;;;28.08;11.15;;;9.60;99.90;;;;;;5139309;27;20077;-64
2024/02/12 09:48:14;;;;;;;20.23;9.65;;;9.50;99.90;;;;;;5140373;27;20042;-64
2024/02/12 09:50:46;;;;;;;19.67;10.43;;;9.50;99.90;;;;;;5140715;27;20035;-64
2024/02/12 09:53:23;;;;;;;20.77;9.95;;;9.50;99.90;;;;;;5138871;27;20072;-63
2024/02/12 09:55:48;;;;;;;19.20;9.02;;;9.40;99.90;;;;;;5141058;27;20477;-63
2024/02/12 09:58:15;;;;;;;22.92;10.10;;;9.50;99.90;;;;;;5140937;27;20342;-64
2024/02/12 10:00:45;;;;;;;26.50;11.43;;;9.60;99.90;;;;;;5140519;27;20099;-63
2024/02/12 10:03:14;;;;;;;25.30;9.98;;;9.60;99.90;;;;;;5137529;27;20030;-64
2024/02/12 10:05:44;;;;;;;21.67;11.27;;;9.70;99.90;;;;;;5139014;27;20035;-64
2024/02/12 10:08:23;;;;;;;23.80;12.38;;;9.80;99.90;;;;;;5139249;27;20042;-64
2024/02/12 10:10:49;;;;;;;19.70;10.75;;;9.90;99.90;;;;;;5138275;27;20034;-64
2024/02/12 10:13:16;;;;;;;21.08;9.40;;;9.90;99.90;;;;;;5139856;27;20448;-63
2024/02/12 10:15:43;;;;;;;18.05;9.90;;;9.90;99.90;;;;;;5138638;27;21214;-63
2024/02/12 10:18:11;;;;;;;19.50;10.15;;;9.90;99.90;;;;;;5120145;27;20490;-64
2024/02/12 10:20:39;;;;;;;20.23;9.65;;;9.90;99.90;;;;;;5139551;27;20428;-64
2024/02/12 10:23:08;;;;;;;23.70;9.60;;;9.80;99.90;;;;;;5142076;27;20038;-64
2024/02/12 10:25:39;;;;;;;22.35;8.65;;;9.80;99.90;;;;;;5142908;27;20043;-64
2024/02/12 10:28:05;;;;;;;17.50;8.73;;;9.80;99.90;;;;;;5141169;27;20062;-64
2024/02/12 10:30:31;;;;;;;15.73;8.45;;;9.80;99.90;;;;;;5144585;27;20066;-64
2024/02/12 10:33:04;;;;;;;18.83;7.32;;;9.80;99.90;;;;;;5145784;27;20050;-64
2024/02/12 10:35:31;;;;;;;17.90;6.97;;;9.80;99.90;;;;;;5141962;27;20767;-64
2024/02/12 10:37:57;;;;;;;16.33;7.22;;;9.70;99.90;;;;;;5143245;27;20671;-63
2024/02/12 10:40:35;;;;;;;19.33;6.68;;;9.60;99.90;;;;;;5143804;27;20169;-64
2024/02/12 10:43:03;;;;;;;16.75;7.25;;;9.60;99.90;;;;;;5141876;27;20454;-62
2024/02/12 10:45:31;;;;;;;14.25;6.88;;;9.60;99.90;;;;;;5143138;27;20491;-63
2024/02/12 10:47:57;;;;;;;24.42;7.85;;;9.70;99.90;;;;;;5125178;27;20038;-64
2024/02/12 10:50:24;;;;;;;19.00;7.35;;;9.70;99.90;;;;;;5139480;27;20506;-63
2024/02/12 10:52:52;;;;;;;15.02;6.88;;;9.70;99.90;;;;;;5139453;27;20591;-63
2024/02/12 10:55:19;;;;;;;18.63;7.28;;;9.70;99.90;;;;;;5140523;27;20527;-63
2024/02/12 10:57:46;;;;;;;20.73;7.10;;;9.80;99.90;;;;;;5140100;27;20082;-63
2024/02/12 11:00:25;;;;;;;19.98;7.07;;;9.70;99.90;;;;;;5142139;27;20039;-63
2024/02/12 11:02:55;;;;;;;18.92;6.65;;;9.70;99.90;;;;;;5140763;27;20506;-63
2024/02/12 11:05:21;;;;;;;18.02;6.20;;;9.80;99.90;;;;;;5139498;27;20036;-63
2024/02/12 11:07:59;;;;;;;12.88;5.75;;;9.80;99.90;;;;;;5140382;27;20074;-63
2024/02/12 11:10:26;;;;;;;18.92;6.90;;;10.00;99.90;;;;;;5139899;27;20038;-63
2024/02/12 11:12:51;;;;;;;17.88;6.43;;;9.70;99.90;;;;;;5139932;27;20439;-64
2024/02/12 11:15:35;;;;;;;11.60;5.78;;;9.80;99.90;;;;;;5140813;27;20389;-63
2024/02/12 11:18:12;;;;;;;16.67;5.75;;;9.80;99.90;;;;;;5140444;27;20035;-63
2024/02/12 11:20:51;;;;;;;11.60;4.97;;;9.90;99.90;;;;;;5142111;27;20034;-64
2024/02/12 11:23:24;;;;;;;15.63;5.53;;;9.80;99.90;;;;;;5140017;27;20809;-63
2024/02/12 11:25:54;;;;;;;14.90;6.05;;;9.80;99.90;;;;;;5144253;27;20402;-63
2024/02/12 11:28:23;;;;;;;10.13;5.63;;;9.80;99.90;;;;;;5141496;27;20081;-63
2024/02/12 11:30:49;;;;;;;14.88;5.55;;;9.80;99.90;;;;;;5143345;27;20042;-63
2024/02/12 11:33:15;;;;;;;14.35;6.13;;;9.80;99.90;;;;;;5140673;27;20505;-63
2024/02/12 11:35:41;;;;;;;8.95;4.90;;;9.80;99.90;;;;;;5139318;27;20035;-63
2024/02/12 11:38:10;;;;;;;11.00;5.78;;;9.80;99.90;;;;;;5120426;27;20115;-63
2024/02/12 11:40:35;;;;;;;12.32;6.15;;;9.80;99.90;;;;;;5141772;27;20046;-63
2024/02/12 11:43:01;;;;;;;17.55;5.97;;;9.80;99.90;;;;;;5141022;27;20031;-63
2024/02/12 11:45:27;;;;;;;11.82;5.97;;;9.80;99.90;;;;;;5142315;27;20034;-63
2024/02/12 11:48:03;;;;;;;14.05;5.60;;;9.80;99.90;;;;;;5139534;27;20038;-63
2024/02/12 11:50:29;;;;;;;11.63;4.63;;;9.80;99.90;;;;;;5140951;27;20459;-62
2024/02/12 11:52:56;;;;;;;10.27;4.25;;;9.80;99.90;;;;;;5141657;27;20121;-63
2024/02/12 11:55:23;;;;;;;10.98;4.60;;;9.80;99.90;;;;;;5142520;27;20043;-63
2024/02/12 11:57:50;;;;;;;16.00;5.35;;;9.90;99.90;;;;;;5140990;27;20039;-63
2024/02/12 12:00:20;;;;;;;14.93;5.63;;;9.90;99.90;;;;;;5140223;27;20457;-62
2024/02/12 12:02:51;;;;;;;14.55;5.05;;;10.00;99.90;;;;;;5122944;27;20074;-63
2024/02/12 12:05:24;;;;;;;12.27;4.90;;;10.00;99.90;;;;;;5141590;27;20115;-62
2024/02/12 12:07:56;;;;;;;15.32;4.72;;;10.10;99.90;;;;;;5141797;27;20372;-63
2024/02/12 12:10:27;;;;;;;12.00;5.32;;;10.10;99.90;;;;;;5141349;27;20042;-63
2024/02/12 12:12:56;;;;;;;13.13;4.57;;;10.10;99.90;;;;;;5142488;27;20038;-63
2024/02/12 12:15:22;;;;;;;12.85;4.28;;;10.10;99.90;;;;;;5141798;27;20034;-64
2024/02/12 12:17:48;;;;;;;10.73;4.10;;;10.10;99.90;;;;;;5142069;27;20486;-64
2024/02/12 12:20:17;;;;;;;11.10;4.40;;;10.10;99.90;;;;;;5140919;27;20035;-63
2024/02/12 12:22:44;;;;;;;;;;;10.10;99.90;;;;;;5124134;27;20525;-64
2024/02/12 12:25:11;;;;;;;11.40;4.47;;;10.10;99.90;;;;;;5141880;27;19923;-63
2024/02/12 12:27:38;;;;;;;10.98;3.85;;;10.10;99.90;;;;;;5140217;27;20334;-64
2024/02/12 12:30:18;;;;;;;10.68;5.00;;;10.10;99.90;;;;;;5139733;27;20042;-63
2024/02/12 12:32:48;;;;;;;12.60;4.25;;;10.10;99.90;;;;;;5140919;27;20046;-63
2024/02/12 12:35:17;;;;;;;7.97;3.65;;;10.20;99.90;;;;;;5136293;27;20139;-63
2024/02/12 12:37:47;;;;;;;14.80;4.20;;;10.10;99.90;;;;;;5140185;27;20047;-63
2024/02/12 12:40:19;;;;;;;11.27;5.15;;;10.10;99.90;;;;;;5140246;27;20175;-63
2024/02/12 12:42:49;;;;;;;14.75;4.90;;;10.10;99.90;;;;;;5139475;27;20806;-63
2024/02/12 12:45:17;;;;;;;14.05;4.97;;;10.20;99.90;;;;;;5140259;27;20073;-64
2024/02/12 12:47:43;;;;;;;9.95;4.65;;;10.20;99.90;;;;;;5120388;27;20072;-64
2024/02/12 12:50:10;;;;;;;15.13;5.25;;;10.10;99.90;;;;;;5140956;27;20034;-63
2024/02/12 12:52:39;;;;;;;14.88;5.07;;;10.20;99.90;;;;;;5140250;27;20316;-63
2024/02/12 12:55:07;;;;;;;10.20;4.50;;;10.10;99.90;;;;;;5142246;27;20038;-63
2024/02/12 12:57:34;;;;;;;13.07;4.90;;;10.10;99.90;;;;;;5133841;27;20039;-64
2024/02/12 13:00:05;;;;;;;22.75;5.70;;;10.10;99.90;;;;;;5139837;27;20122;-63